INFORMACIÓN METAR y TAF
METAR FOR TFFR
ADDS - METARS form results

(0328 UTC 22 July 2019)
Data provider http://aviationweather.gov/metar/data/
 
METAR text: TFFR 220300Z AUTO 12003KT CAVOK 25/22 Q1016 TEMPO 4000 SHRA SCT020TCU
Conditions at: TFFR (LE RAIZET , GP) observed 0300 UTC 22 July 2019
Temperature: 25.0°C (77°F)
Dewpoint: 22.0°C (72°F) [RH = 83%]
Pressure (altimeter): 30.00 inches Hg (1016.0 mb)
Winds: from the ESE (120 degrees) at 3 MPH (3 knots; 1.5 m/s)
Visibility: 6 or more miles (10+ km)
Ceiling: ceiling and visibility are OK
Clouds: unknown
Weather: no significant weather observed at this time

METAR text: TFFR 220230Z AUTO 13002KT 9999 FEW025 24/22 Q1016 TEMPO 4000 SHRA SCT020TCU
Conditions at: TFFR (LE RAIZET , GP) observed 0230 UTC 22 July 2019
Temperature: 24.0°C (75°F)
Dewpoint: 22.0°C (72°F) [RH = 89%]
Pressure (altimeter): 30.00 inches Hg (1016.0 mb)
Winds: from the SE (130 degrees) at 2 MPH (2 knots; 1.0 m/s)
Visibility: 6 or more miles (10+ km)
Ceiling: at least 12,000 feet AGL
Clouds: few clouds at 2500 feet AGL
Weather: no significant weather observed at this time

Forecast for: TFFR (LE RAIZET , GP)
Text: TAF TFFR 212300Z 2200/2224 11010KT 9999 SCT025
Forecast period: 0000 UTC 22 July 2019 to 0000 UTC 23 July 2019
Forecast type: FROM: standard forecast or significant change
Winds: from the ESE (110 degrees) at 12 MPH (10 knots; 5.1 m/s)
Visibility: 6 or more miles 10+ km)
Ceiling: at least 12,000 feet AGL
Clouds: scattered clouds at 2500 feet AGL
Weather: no significant weather forecast for this period
Text: PROB30
Forecast period: 0000 to 1200 UTC 22 July 2019
Forecast type: TEMPORARY: The following changes expected for less than half the time period
Visibility: 2.49 miles (4.01 km)
Ceiling: at least 12,000 feet AGL
Clouds: scattered clouds at 2000 feet AGL
Weather: SHRA  (rain showers)
Text: TEMPO 2200/2212 4000 SHRA SCT020TCU
Forecast period: 1900 UTC 22 July 2019 to 0000 UTC 23 July 2019
Forecast type: TEMPORARY: The following changes expected for less than half the time period
Winds: variable direction winds at 17 MPH (15 knots; 7.7 m/s)
gusting to 29 MPH (25 knots; 12.9 m/s)
Visibility: 1.24 miles (2.00 km)
Ceiling: 1500 feet AGL
Clouds: broken clouds at 1500 feet AGL
Weather: SHRA  (rain showers)

 MAPA DE AEROPUERTO

 INFORMACIÓN DE PISTA
Pista 12 Longitud 11499 ft Ancho 148 ft
Elevación 5 ft Umbral desplazado 1312 ft Rumbo de pista 101
Pista 30 Longitud 11499 ft Ancho 148 ft
Elevación 32 ft Umbral desplazado 820 ft Rumbo de pista 281

 FRECUANCIAS DEL AEROPUERTO
Tipo APP Nombre RAIZET APP Frecuencia 121.3 MHZ
Tipo ATIS Nombre ATIS Frecuencia 127.6 MHZ
Tipo GND Nombre GND Frecuencia 121.85 MHZ
Tipo TWR Nombre RAIZET TWR Frecuencia 118.4 MHZ

 RADIO AYUDAS DEL AEROPUERTO
Tipo VOR-DME Nombre Pointe A Pitre Frecuencia 112900 KHZ
Tipo NDB Nombre Pointe A Pitre Frecuencia 385 KHZ



Powered by Virtual Airlines Manager [v2.6.2]